Latest Weather Observations for Onslow Airport

IDW60801

Issued at 7:02 pm WST Wednesday 4 March 2015 (issued every 30 minutes, with the page automatically refreshed every 10 minutes)

About weather observations | Map of weather stations | Latest weather observations for WA | Other Formats
Station Details ID: 005017 Name: ONSLOW AIRPORT Lat: -21.67 Lon: 115.11 Height: 10.5 m
Data from the previous 72 hours. | See also: Recent months at Onslow Airport
Date/Time
WST
Temp
°C
App
Temp
°C
Dew
Point
Rel
Hum
%
Delta-T
°C
Wind Press
QNH
hPa
Press
MSL
hPa
Rain
since 9 am
mm
Dir
 
Spd
km/h
Gust
km/h
Spd
kts
Gust
kts
04/07:00pm 28.7 30.6 23.8 75 3.4 WNW 20 26 11 14 1009.3 1009.2 0.0
04/06:30pm 29.0 31.1 23.7 73 3.7 WNW 19 24 10 13 1009.2 1009.1 0.0
04/06:00pm 29.4 31.8 23.6 71 4.0 NW 17 22 9 12 1009.3 1009.2 0.0
04/05:30pm 29.7 30.6 23.4 69 4.3 NNW 24 28 13 15 1008.8 1008.7 0.0
04/05:00pm 30.2 30.9 23.6 67 4.6 N 26 33 14 18 1008.7 1008.6 0.0
04/04:30pm 30.0 30.0 23.7 69 4.4 N 30 37 16 20 1008.6 1008.5 0.0
04/04:00pm 31.4 31.2 24.3 66 5.0 N 33 43 18 23 1008.3 1008.2 0.0
04/03:30pm 32.1 31.2 23.9 62 5.7 N 35 46 19 25 1007.7 1007.6 0.0
04/03:00pm 32.4 32.1 24.2 62 5.7 N 33 44 18 24 1008.0 1007.9 0.0
04/02:30pm 33.0 32.2 23.3 56 6.7 NNW 33 41 18 22 1007.9 1007.8 0.0
04/02:00pm 33.2 32.2 22.6 53 7.3 NNW 32 41 17 22 1007.7 1007.6 0.0
04/01:30pm 33.4 32.9 22.2 52 7.7 NNW 28 35 15 19 1007.6 1007.5 0.0
04/01:00pm 33.4 32.2 21.5 49 8.1 NNW 30 39 16 21 1008.0 1007.9 0.0
04/12:30pm 34.5 34.4 22.2 48 8.4 NNW 26 33 14 18 1008.1 1008.0 0.0
04/12:00pm 33.8 34.7 21.9 49 8.1 NNW 20 28 11 15 1008.4 1008.3 0.0
04/11:30am 34.2 35.6 22.6 50 8.0 NNW 19 24 10 13 1008.7 1008.6 0.0
04/11:00am 34.0 35.9 22.1 50 8.1 NNW 15 22 8 12 1009.1 1009.0 0.0
04/10:30am 33.0 35.4 21.5 50 7.8 NNE 11 20 6 11 1009.4 1009.3 0.0
04/10:00am 33.2 34.2 21.0 48 8.2 ENE 17 22 9 12 1009.8 1009.7 0.0
04/09:30am 32.4 34.8 22.2 55 7.0 E 13 17 7 9 1010.0 1009.9 0.0
04/09:00am 31.2 32.4 22.2 58 6.1 E 19 24 10 13 1010.1 1010.0 0.0
04/08:30am 30.7 31.7 22.8 62 5.4 ESE 22 28 12 15 1010.2 1010.1 0.0
04/08:00am 29.8 31.4 23.3 68 4.5 SE 20 24 11 13 1010.0 1009.9 0.0
04/07:30am 28.6 30.4 23.5 74 3.5 SE 20 24 11 13 1009.7 1009.6 0.0
04/07:00am 27.3 30.2 23.1 78 2.9 SSE 13 19 7 10 1009.3 1009.2 0.0
04/06:30am 26.4 29.5 22.9 81 2.4 S 11 13 6 7 1009.2 1009.1 0.0
04/06:00am 26.3 29.9 23.0 82 2.2 SSW 9 11 5 6 1009.2 1009.1 0.0
04/05:30am 26.2 29.1 23.1 83 2.1 SW 13 17 7 9 1008.9 1008.8 0.0
04/05:00am 26.2 29.4 23.1 83 2.1 SW 11 13 6 7 1008.9 1008.8 0.0
04/04:30am 26.0 29.9 22.9 83 2.1 SW 7 9 4 5 1008.8 1008.7 0.0
04/04:00am 26.3 29.6 23.2 83 2.1 WSW 11 15 6 8 1008.5 1008.4 0.0
04/03:30am 26.2 29.1 23.1 83 2.1 WSW 13 15 7 8 1008.5 1008.4 0.0
04/03:00am 26.4 29.4 23.3 83 2.1 WSW 13 17 7 9 1008.4 1008.3 0.0
04/02:30am 26.5 29.3 23.0 81 2.4 WSW 13 15 7 8 1008.4 1008.3 0.0
04/02:00am 26.6 28.7 22.4 78 2.8 W 15 17 8 9 1008.6 1008.5 0.0
04/01:30am 26.5 28.8 22.1 77 3.0 W 13 15 7 8 1008.8 1008.7 0.0
04/01:00am 26.6 29.3 22.2 77 3.0 W 11 13 6 7 1009.2 1009.1 0.0
04/12:30am 26.8 29.5 22.2 76 3.1 W 11 13 6 7 1009.3 1009.2 0.0
04/12:00am 27.0 29.5 22.4 76 3.1 W 13 15 7 8 1009.5 1009.4 0.0
 
Date/Time
WST
Temp
°C
App
Temp
°C
Dew
Point
Rel
Hum
%
Delta-T
°C
Wind Press
QNH
hPa
Press
MSL
hPa
Rain
since 9 am
mm
Dir
 
Spd
km/h
Gust
km/h
Spd
kts
Gust
kts
03/11:30pm 27.0 29.5 22.4 76 3.1 WSW 13 17 7 9 1009.6 1009.5 0.0
03/11:00pm 27.1 29.5 22.3 75 3.2 W 13 15 7 8 1009.8 1009.7 0.0
03/10:30pm 27.4 29.4 22.3 73 3.4 WSW 15 20 8 11 1010.0 1009.9 0.0
03/10:00pm 27.7 29.4 22.4 73 3.6 WSW 17 22 9 12 1010.0 1009.9 0.0
03/09:30pm 27.7 28.9 22.2 72 3.7 WSW 19 26 10 14 1010.2 1010.1 0.0
03/09:00pm 27.8 28.2 21.8 70 4.0 WSW 22 30 12 16 1009.7 1009.6 0.0
03/08:30pm 28.0 27.8 21.3 67 4.5 W 24 33 13 18 1009.3 1009.2 0.0
03/08:00pm 27.9 27.5 21.7 69 4.2 WNW 26 33 14 18 1008.6 1008.5 0.0
03/07:30pm 28.1 27.6 21.4 67 4.5 WNW 26 33 14 18 1008.3 1008.2 0.0
03/07:00pm 28.2 27.1 21.0 65 4.8 WNW 28 33 15 18 1007.5 1007.4 0.0
03/06:30pm 28.5 27.0 21.0 64 5.0 WNW 30 37 16 20 1006.9 1006.8 0.0
03/06:00pm 29.2 27.5 21.4 63 5.2 NW 32 37 17 20 1006.3 1006.2 0.0
03/05:30pm 29.5 28.2 22.5 66 4.8 NW 33 43 18 23 1006.0 1005.9 0.0
03/05:00pm 29.8 28.5 22.5 65 5.0 WNW 33 41 18 22 1005.8 1005.7 0.0
03/04:30pm 30.1 28.6 22.8 65 5.0 WNW 35 41 19 22 1005.7 1005.6 0.0
03/04:00pm 30.6 28.8 22.2 61 5.7 NW 35 43 19 23 1005.8 1005.7 0.0
03/03:30pm 30.6 28.9 22.5 62 5.5 WNW 35 43 19 23 1006.0 1005.9 0.0
03/03:00pm 31.5 30.4 22.8 60 6.0 NW 33 41 18 22 1006.4 1006.3 0.0
03/02:30pm 31.2 29.8 21.9 57 6.3 NW 32 43 17 23 1006.7 1006.6 0.0
03/02:00pm 31.7 30.1 21.5 54 6.9 NW 32 37 17 20 1007.1 1007.0 0.0
03/01:30pm 31.8 30.5 21.3 53 7.1 NW 30 37 16 20 1007.2 1007.1 0.0
03/01:00pm 32.2 30.6 20.1 48 8.0 NW 28 35 15 19 1007.6 1007.5 0.0
03/12:30pm 31.4 29.0 19.1 48 8.0 NW 30 35 16 19 1008.0 1007.9 0.0
03/12:00pm 31.8 30.6 20.1 50 7.8 WNW 26 32 14 17 1008.1 1008.0 0.0
03/11:30am 32.0 31.7 21.8 54 6.9 WNW 26 32 14 17 1008.4 1008.3 0.0
03/11:00am 31.7 32.6 22.7 59 6.2 WNW 22 30 12 16 1008.7 1008.6 0.0
03/10:30am 31.0 31.9 22.6 61 5.7 WNW 22 28 12 15 1008.8 1008.7 0.0
03/10:00am 31.0 32.3 22.3 60 5.9 WNW 19 26 10 14 1008.9 1008.8 0.0
03/09:30am 30.2 31.3 22.4 63 5.3 WNW 20 26 11 14 1009.0 1008.9 0.0
03/09:00am 29.7 31.4 22.4 65 5.0 W 17 24 9 13 1008.9 1008.8 0.0
03/08:30am 28.7 30.6 22.7 70 4.1 WSW 17 24 9 13 1008.9 1008.8 0.0
03/08:00am 28.0 29.9 22.7 73 3.6 W 17 22 9 12 1008.9 1008.8 0.0
03/07:30am 27.3 28.7 21.8 72 3.7 W 17 22 9 12 1008.6 1008.5 0.0
03/07:00am 25.7 27.6 21.4 77 2.9 WSW 13 17 7 9 1008.5 1008.4 0.0
03/06:30am 24.8 26.5 20.9 79 2.6 WSW 13 15 7 8 1008.2 1008.1 0.0
03/06:00am 24.6 26.7 20.9 80 2.4 WSW 11 15 6 8 1008.0 1007.9 0.0
03/05:30am 24.6 26.3 20.9 80 2.4 W 13 15 7 8 1007.7 1007.6 0.0
03/05:00am 24.5 26.5 20.8 80 2.4 W 11 15 6 8 1007.5 1007.4 0.0
03/04:30am 24.5 26.3 20.4 78 2.7 WSW 11 13 6 7 1007.5 1007.4 0.0
03/04:00am 24.6 26.4 20.3 77 2.8 W 11 13 6 7 1007.4 1007.3 0.0
03/03:30am 24.7 26.0 20.2 76 2.9 WSW 13 15 7 8 1007.5 1007.4 0.0
03/03:00am 25.2 26.8 20.0 73 3.4 WSW 11 15 6 8 1007.4 1007.3 0.0
03/02:30am 25.7 26.3 20.3 72 3.5 SSW 17 24 9 13 1007.6 1007.5 0.0
03/02:00am 26.0 26.8 20.6 72 3.5 SW 17 22 9 12 1007.5 1007.4 0.0
03/01:30am 26.2 27.0 20.7 71 3.6 SW 17 24 9 13 1007.7 1007.6 0.0
03/01:00am 26.4 26.9 20.9 72 3.6 SW 19 24 10 13 1007.9 1007.8 0.0
03/12:30am 26.6 27.3 20.4 69 4.1 SW 17 24 9 13 1007.8 1007.7 0.0
03/12:00am 26.9 27.0 20.3 67 4.3 SW 20 26 11 14 1007.7 1007.6 0.0
 
Date/Time
WST
Temp
°C
App
Temp
°C
Dew
Point
Rel
Hum
%
Delta-T
°C
Wind Press
QNH
hPa
Press
MSL
hPa
Rain
since 9 am
mm
Dir
 
Spd
km/h
Gust
km/h
Spd
kts
Gust
kts
02/11:30pm 26.8 27.6 19.9 66 4.5 WSW 15 19 8 10 1007.8 1007.7 0.0
02/11:00pm 26.9 28.0 21.2 71 3.8 W 17 20 9 11 1007.8 1007.7 0.0
02/10:30pm 27.2 27.9 21.5 71 3.8 W 20 28 11 15 1007.9 1007.8 0.0
02/10:00pm 27.4 27.5 21.9 72 3.7 W 24 32 13 17 1007.7 1007.6 0.0
02/09:30pm 27.4 27.5 21.9 72 3.7 W 24 32 13 17 1007.5 1007.4 0.0
02/09:00pm 27.5 26.8 21.8 71 3.8 W 28 37 15 20 1007.2 1007.1 0.0
02/08:30pm 27.6 26.8 22.3 73 3.6 W 30 37 16 20 1006.8 1006.7 0.0
02/08:00pm 27.3 25.7 21.6 71 3.8 W 32 41 17 22 1006.6 1006.5 0.0
02/07:30pm 27.6 26.0 21.9 71 3.8 W 33 41 18 22 1006.4 1006.3 0.0
02/07:00pm 27.7 25.8 21.0 67 4.5 W 32 39 17 21 1005.9 1005.8 0.0
02/06:30pm 28.1 26.7 21.9 69 4.2 WNW 32 39 17 21 1005.6 1005.5 0.0
02/06:00pm 28.7 26.9 22.2 68 4.4 WNW 35 43 19 23 1005.1 1005.0 0.0
02/05:30pm 29.0 26.4 21.5 64 5.0 WNW 37 43 20 23 1005.0 1004.9 0.0
02/05:00pm 29.4 26.2 21.1 61 5.5 WNW 39 46 21 25 1004.9 1004.8 0.0
02/04:30pm 30.4 28.2 21.5 59 6.0 WNW 35 46 19 25 1004.8 1004.7 0.0
02/04:00pm 30.1 26.7 20.6 56 6.3 WNW 39 46 21 25 1004.7 1004.6 0.0
02/03:30pm 30.9 28.1 21.1 56 6.6 WNW 37 46 20 25 1004.8 1004.7 0.0
02/03:00pm 31.8 28.8 20.7 51 7.4 WNW 37 44 20 24 1005.0 1004.9 0.0
02/02:30pm 32.3 29.8 20.9 51 7.6 WNW 35 44 19 24 1005.3 1005.2 0.0
02/02:00pm 31.8 27.9 18.7 45 8.5 WNW 37 44 20 24 1005.7 1005.6 0.0
02/01:30pm 31.9 29.8 20.5 51 7.6 WNW 32 41 17 22 1006.1 1006.0 0.0
02/01:00pm 30.5 28.9 21.6 59 6.0 WNW 32 43 17 23 1006.6 1006.5 0.0
02/12:30pm 31.3 30.1 21.5 56 6.6 NW 30 39 16 21 1007.0 1006.9 0.0
02/12:00pm 30.3 29.1 20.8 56 6.3 NW 28 35 15 19 1007.4 1007.3 0.0
02/11:30am 31.1 30.5 20.4 53 7.1 NW 24 30 13 16 1007.8 1007.7 0.0
02/11:00am 30.9 31.5 20.2 53 7.1 NW 17 24 9 13 1008.0 1007.9 0.0
02/10:30am 30.2 30.4 20.2 55 6.6 NW 19 28 10 15 1008.3 1008.2 0.0
02/10:00am 31.3 31.5 19.3 49 7.9 S 17 22 9 12 1008.3 1008.2 0.0
02/09:30am 30.0 30.8 19.1 52 7.1 SSW 13 19 7 10 1008.4 1008.3 0.0
02/09:00am 29.0 29.9 19.3 55 6.3 SSW 13 19 7 10 1008.4 1008.3 0.0
02/08:30am 28.2 29.1 20.0 61 5.4 SW 15 19 8 10 1008.3 1008.2 0.0
02/08:00am 27.3 28.2 20.1 64 4.7 SSW 15 19 8 10 1008.1 1008.0 0.0
02/07:30am 26.2 26.4 20.1 69 4.0 SW 19 20 10 11 1008.1 1008.0 0.0
02/07:00am 25.4 27.6 20.4 74 3.3 SW 9 15 5 8 1008.0 1007.9 0.0
02/06:30am 24.5 26.9 20.0 76 2.9 SW 7 9 4 5 1007.8 1007.7 0.0
02/06:00am 25.0 27.2 20.3 75 3.1 SW 9 11 5 6 1007.6 1007.5 0.0
02/05:30am 25.4 26.8 20.4 74 3.3 SSW 13 17 7 9 1007.4 1007.3 0.0
02/05:00am 25.5 26.6 20.5 74 3.3 SSW 15 17 8 9 1007.3 1007.2 0.0
02/04:30am 25.6 27.1 20.6 74 3.3 SSW 13 17 7 9 1007.2 1007.1 0.0
02/04:00am 25.8 27.2 21.0 75 3.2 SSW 15 19 8 10 1007.3 1007.2 0.0
02/03:30am 25.8 27.6 21.2 76 3.0 SW 13 15 7 8 1007.3 1007.2 0.0
02/03:00am 25.9 27.3 21.1 75 3.2 SW 15 19 8 10 1007.4 1007.3 0.0
02/02:30am 26.0 27.1 21.2 75 3.2 SW 17 22 9 12 1007.4 1007.3 0.0
02/02:00am 26.2 26.9 21.2 74 3.3 SW 19 22 10 12 1007.7 1007.6 0.0
02/01:30am 26.4 27.1 21.2 73 3.4 SW 19 24 10 13 1007.8 1007.7 0.0
02/01:00am 26.6 26.7 21.1 72 3.6 SW 22 26 12 14 1007.7 1007.6 0.0
02/12:30am 26.9 26.5 21.0 70 3.9 SW 24 32 13 17 1007.7 1007.6 0.0
02/12:00am 27.2 27.7 21.2 69 4.0 SW 20 26 11 14 1007.9 1007.8 0.0
 
Date/Time
WST
Temp
°C
App
Temp
°C
Dew
Point
Rel
Hum
%
Delta-T
°C
Wind Press
QNH
hPa
Press
MSL
hPa
Rain
since 9 am
mm
Dir
 
Spd
km/h
Gust
km/h
Spd
kts
Gust
kts
01/11:30pm 27.4 27.5 21.2 69 4.1 SW 22 28 12 15 1008.1 1008.0 0.0
01/11:00pm 27.3 28.8 22.7 76 3.1 W 19 26 10 14 1008.0 1007.9 0.0
01/10:30pm 27.4 28.8 22.8 76 3.1 W 20 28 11 15 1008.2 1008.1 0.0
01/10:00pm 27.4 28.4 22.8 76 3.1 W 22 30 12 16 1008.1 1008.0 0.0
01/09:30pm 27.3 28.1 23.1 78 2.9 W 24 32 13 17 1007.8 1007.7 0.0
01/09:00pm 27.5 29.0 23.1 77 3.0 W 20 28 11 15 1007.6 1007.5 0.0
01/08:30pm 27.5 28.8 22.7 75 3.3 W 20 28 11 15 1007.3 1007.2 0.0
01/08:00pm 27.6 27.9 21.6 70 4.0 W 22 28 12 15 1007.0 1006.9 0.0
01/07:30pm 27.5 27.6 21.8 71 3.8 W 24 30 13 16 1006.6 1006.5 0.0

Other Formats:

Comma delimited format used in spreadsheet applications
http://www.bom.gov.au/fwo/IDW60801/IDW60801.95305.axf

JavaScript Object Notation format (JSON) in row-major order
http://www.bom.gov.au/fwo/IDW60801/IDW60801.95305.json